Time;durP1;ratioP1;P1;durP2;ratioP2;P2;SDS_P1;SDS_P2;PMS_P1;PMS_P2;Temp;Humidity;BMP_temperature;BMP_pressure;BME280_temperature;BME280_humidity;BME280_pressure;Samples;Min_cycle;Max_cycle;Signal;HPM_P1;HPM_P2
2022/08/06 00:00:19;;;;;;;14.05;10.75;;;21.80;99.90;;;22.78;91.50;99318.22;5090642;27;129786;-79
2022/08/06 00:02:49;;;;;;;15.15;11.88;;;21.90;99.90;;;22.76;91.71;99321.38;5073882;27;127685;-77
2022/08/06 00:05:18;;;;;;;12.95;11.40;;;21.80;99.90;;;22.72;91.66;99319.81;5055186;27;119111;-76
2022/08/06 00:07:46;;;;;;;14.70;11.07;;;21.80;99.90;;;22.69;92.28;99315.88;5090427;27;121379;-76
2022/08/06 00:10:17;;;;;;;15.35;11.23;;;21.80;99.90;;;22.67;92.23;99312.72;5072048;27;129535;-76
2022/08/06 00:12:47;;;;;;;13.75;11.25;;;21.70;99.90;;;22.61;92.94;99315.13;5071649;27;129230;-77
2022/08/06 00:15:18;;;;;;;12.70;10.35;;;21.70;99.90;;;22.60;92.78;99312.75;5087332;27;119462;-76
2022/08/06 00:17:49;;;;;;;13.95;11.32;;;21.60;99.90;;;22.57;92.54;99308.78;5087782;27;119572;-78
2022/08/06 00:20:18;;;;;;;14.05;10.82;;;21.60;99.90;;;22.57;92.74;99313.53;5084614;27;130349;-80
2022/08/06 00:22:46;;;;;;;14.98;11.35;;;21.60;99.90;;;22.54;92.81;99308.81;5083402;27;129511;-77
2022/08/06 00:25:15;;;;;;;15.15;11.60;;;21.50;99.90;;;22.49;93.34;99329.34;5082552;27;122260;-78
2022/08/06 00:27:43;;;;;;;15.57;11.77;;;21.50;99.90;;;22.49;93.41;99321.06;5083545;27;122003;-78
2022/08/06 00:30:13;;;;;;;13.73;10.77;;;21.50;99.90;;;22.46;93.49;99326.59;5068221;27;129487;-77
2022/08/06 00:32:41;;;;;;;13.07;11.20;;;21.50;99.90;;;22.43;93.67;99319.88;5083366;27;129630;-76
2022/08/06 00:35:11;;;;;;;13.05;11.10;;;21.40;99.90;;;22.40;93.82;99323.44;5083795;27;119732;-78
2022/08/06 00:37:40;;;;;;;14.20;11.45;;;21.50;99.90;;;22.42;93.70;99318.28;5084307;27;119148;-78
2022/08/06 00:40:10;;;;;;;15.95;11.18;;;21.50;99.90;;;22.41;93.75;99327.78;5083211;27;129747;-82
2022/08/06 00:42:39;;;;;;;15.15;10.80;;;21.40;99.90;;;22.36;94.12;99325.41;5068721;27;128907;-78
2022/08/06 00:45:08;;;;;;;15.40;10.80;;;21.50;99.90;;;22.37;93.87;99329.75;5083454;27;119685;-80
2022/08/06 00:47:37;;;;;;;15.25;11.52;;;21.40;99.90;;;22.34;94.21;99323.03;5083212;27;119498;-79
2022/08/06 00:50:07;;;;;;;15.93;11.30;;;21.40;99.90;;;22.32;94.07;99319.88;5081984;27;130177;-77
2022/08/06 00:52:36;;;;;;;13.77;11.80;;;21.30;99.90;;;22.30;94.33;99324.19;5083261;27;129761;-78
2022/08/06 00:55:06;;;;;;;15.63;11.93;;;21.30;99.90;;;22.26;94.49;99321.44;5068012;27;119106;-77
2022/08/06 00:57:35;;;;;;;14.43;12.30;;;21.30;99.90;;;22.23;94.89;99319.44;5083249;27;119887;-78
2022/08/06 01:00:04;;;;;;;15.93;11.93;;;21.30;99.90;;;22.18;95.19;99323.41;5083059;27;130497;-78
2022/08/06 01:02:33;;;;;;;14.98;11.73;;;21.30;99.90;;;22.17;95.48;99330.09;5082763;27;129542;-77
2022/08/06 01:05:02;;;;;;;17.48;12.57;;;21.20;99.90;;;22.17;95.63;99324.56;5083056;27;119729;-77
2022/08/06 01:07:31;;;;;;;13.73;11.70;;;21.20;99.90;;;22.13;95.86;99326.56;5083239;27;119451;-78
2022/08/06 01:10:01;;;;;;;19.25;12.05;;;21.10;99.90;;;22.12;95.52;99322.22;5082853;27;130490;-76
2022/08/06 01:12:29;;;;;;;13.55;11.85;;;21.10;99.90;;;22.09;96.04;99323.00;5082888;27;129600;-79
2022/08/06 01:14:58;;;;;;;16.90;12.23;;;21.10;99.90;;;22.04;96.53;99326.16;5081607;27;121984;-78
2022/08/06 01:17:34;;;;;;;17.88;12.57;;;21.00;99.90;;;22.03;96.82;99324.56;5083010;27;122380;-78
2022/08/06 01:20:20;;;;;;;17.67;11.60;;;21.10;99.90;;;22.00;97.13;99330.88;5067283;27;129044;-77
2022/08/06 01:23:18;;;;;;;17.60;13.13;;;21.00;99.90;;;21.90;97.55;99324.94;5082503;27;129923;-77
2022/08/06 01:26:35;;;;;;;17.63;13.00;;;21.00;99.90;;;21.95;97.34;99325.75;5082647;27;119527;-77
2022/08/06 01:29:10;;;;;;;15.45;12.48;;;20.90;99.90;;;21.89;97.75;99328.91;5082809;27;119496;-77
2022/08/06 01:31:46;;;;;;;16.97;12.53;;;20.90;99.90;;;21.90;97.62;99330.47;5082030;27;129874;-77
2022/08/06 01:34:22;;;;;;;18.03;12.93;;;20.90;99.90;;;21.85;98.05;99336.38;5081340;27;129406;-78
2022/08/06 01:36:57;;;;;;;17.92;12.95;;;20.80;99.90;;;21.83;98.31;99333.25;5082685;27;119609;-78
2022/08/06 01:39:28;;;;;;;17.53;13.40;;;20.80;99.90;;;21.80;98.56;99334.03;5082600;27;120252;-77
2022/08/06 01:41:59;;;;;;;18.23;13.35;;;20.70;99.90;;;21.77;98.61;99329.28;5080999;27;129717;-78
2022/08/06 01:44:35;;;;;;;16.60;12.57;;;20.70;99.90;;;21.74;99.07;99341.09;5082260;27;131180;-77
2022/08/06 01:47:09;;;;;;;17.83;12.68;;;20.70;99.90;;;21.74;98.92;99338.34;5067058;27;119428;-77
2022/08/06 01:49:42;;;;;;;15.82;12.60;;;20.70;99.90;;;21.70;99.52;99340.31;5063964;27;119396;-78
2022/08/06 01:52:13;;;;;;;16.80;12.60;;;20.60;99.90;;;21.64;100.00;99341.84;5084044;27;129440;-80
2022/08/06 01:54:46;;;;;;;16.98;13.35;;;20.60;99.90;;;21.59;100.00;99356.06;5082043;27;130143;-80
2022/08/06 01:57:19;;;;;;;17.40;13.00;;;20.70;99.90;;;21.58;100.00;99346.19;5066652;27;118934;-78
2022/08/06 01:59:54;;;;;;;17.15;13.13;;;20.70;99.90;;;21.58;100.00;99349.75;5082594;27;120127;-77
2022/08/06 02:02:28;;;;;;;17.73;12.73;;;20.60;99.90;;;21.59;100.00;99345.00;5066670;27;129794;-77
2022/08/06 02:05:02;;;;;;;15.95;12.98;;;20.60;99.90;;;21.58;100.00;99343.41;5082236;27;129708;-76
2022/08/06 02:07:36;;;;;;;19.33;13.18;;;20.60;99.90;;;21.59;100.00;99356.06;5065746;27;121771;-77
2022/08/06 02:10:07;;;;;;;15.32;12.82;;;20.60;99.90;;;21.59;100.00;99356.06;5081904;27;122521;-78
2022/08/06 02:12:40;;;;;;;15.60;12.60;;;20.60;99.90;;;21.58;100.00;99351.69;5081630;27;130195;-77
2022/08/06 02:15:14;;;;;;;16.27;12.25;;;20.50;99.90;;;21.53;100.00;99353.69;5081811;27;129889;-78
2022/08/06 02:17:48;;;;;;;19.50;13.05;;;20.50;99.90;;;21.54;100.00;99360.75;5081915;27;119423;-76
2022/08/06 02:20:20;;;;;;;18.20;13.38;;;20.40;99.90;;;21.49;100.00;99352.88;5081780;27;119485;-78
2022/08/06 02:22:50;;;;;;;18.83;13.60;;;20.50;99.90;;;21.46;100.00;99353.63;5081427;27;130358;-78
2022/08/06 02:25:20;;;;;;;17.33;13.30;;;20.40;99.90;;;21.44;100.00;99355.97;5067037;27;128563;-77
2022/08/06 02:27:53;;;;;;;16.40;13.48;;;20.40;99.90;;;21.40;100.00;99344.13;5081796;27;119665;-78
2022/08/06 02:30:26;;;;;;;16.80;12.75;;;20.40;99.90;;;21.38;100.00;99352.00;5081735;27;119186;-77
2022/08/06 02:32:55;;;;;;;16.98;13.18;;;20.40;99.90;;;21.40;100.00;99349.66;5047805;27;128873;-79
2022/08/06 02:35:25;;;;;;;16.42;13.02;;;20.40;99.90;;;21.42;100.00;99343.75;5081371;27;129389;-78
2022/08/06 02:38:02;;;;;;;16.45;12.82;;;20.40;99.90;;;21.44;100.00;99347.69;5081815;27;119969;-76
2022/08/06 02:40:37;;;;;;;16.55;14.43;;;20.30;99.90;;;21.40;100.00;99341.38;5081660;27;120130;-76
2022/08/06 02:43:09;;;;;;;21.10;13.88;;;20.30;99.90;;;21.42;100.00;99341.75;5062021;27;130415;-77
2022/08/06 02:45:44;;;;;;;19.75;12.95;;;20.30;99.90;;;21.45;100.00;99340.97;5066321;27;128388;-77
2022/08/06 02:48:21;;;;;;;17.92;13.13;;;20.40;99.90;;;21.49;100.00;99338.28;5081525;27;119685;-75
2022/08/06 02:50:52;;;;;;;19.10;14.45;;;20.30;99.90;;;21.50;100.00;99342.59;5066639;27;119234;-78
2022/08/06 02:53:27;;;;;;;17.48;12.82;;;20.30;99.90;;;21.54;100.00;99343.41;5081022;27;130305;-78
2022/08/06 02:56:04;;;;;;;17.75;13.07;;;20.30;99.90;;;21.56;100.00;99334.75;5065649;27;129442;-77
2022/08/06 02:58:36;;;;;;;18.13;13.68;;;20.30;99.90;;;21.58;100.00;99332.38;5079984;27;121564;-77
2022/08/06 03:01:12;;;;;;;18.20;14.10;;;20.40;99.90;;;21.56;100.00;99331.97;5083243;27;121562;-77
2022/08/06 03:03:45;;;;;;;17.10;14.00;;;20.40;99.90;;;21.58;100.00;99329.63;5065675;27;128956;-76
2022/08/06 03:06:15;;;;;;;22.50;13.65;;;20.40;99.90;;;21.56;100.00;99326.47;5080826;27;129343;-77
2022/08/06 03:08:46;;;;;;;18.77;14.25;;;20.50;99.90;;;21.58;100.00;99329.63;5066217;27;118274;-77
2022/08/06 03:11:17;;;;;;;18.45;14.55;;;20.50;99.90;;;21.61;100.00;99331.59;5081191;27;119425;-77
2022/08/06 03:13:48;;;;;;;20.45;13.50;;;20.50;99.90;;;21.65;100.00;99332.41;5080546;27;129753;-76
2022/08/06 03:16:19;;;;;;;16.95;13.30;;;20.50;99.90;;;21.79;100.00;99329.66;5079788;27;129321;-76
2022/08/06 03:18:50;;;;;;;16.67;12.50;;;20.60;99.90;;;21.96;99.92;99319.06;5080977;27;119610;-76
2022/08/06 03:21:20;;;;;;;14.25;12.27;;;20.70;99.90;;;22.18;97.96;99326.16;5081195;27;119816;-77
2022/08/06 03:23:51;;;;;;;16.83;12.23;;;20.90;99.90;;;22.34;96.49;99328.56;5079619;27;130206;-75
2022/08/06 03:26:20;;;;;;;16.02;13.15;;;21.00;99.90;;;22.40;96.16;99337.25;5081079;27;129518;-77
2022/08/06 03:28:49;;;;;;;15.68;11.70;;;21.00;99.90;;;22.50;94.68;99336.47;5083164;27;120166;-77
2022/08/06 03:31:20;;;;;;;14.50;11.93;;;21.00;99.90;;;22.52;94.44;99333.31;5062781;27;119284;-76
2022/08/06 03:33:49;;;;;;;16.25;12.45;;;21.10;99.90;;;22.63;94.22;99327.75;5065392;27;129604;-76
2022/08/06 03:36:20;;;;;;;17.33;12.48;;;21.10;99.90;;;22.70;93.08;99330.50;5080931;27;130023;-80
2022/08/06 03:38:54;;;;;;;16.13;12.40;;;21.20;99.90;;;22.76;92.84;99337.22;5082368;27;119735;-78
2022/08/06 03:41:24;;;;;;;16.30;12.52;;;21.30;99.90;;;22.85;92.58;99334.81;5082949;27;119556;-78
2022/08/06 03:43:53;;;;;;;14.98;12.35;;;21.30;99.90;;;22.90;92.01;99337.16;5080462;27;129986;-79
2022/08/06 03:46:28;;;;;;;16.33;12.35;;;21.40;99.90;;;22.99;91.14;99342.28;5065445;27;129078;-79
2022/08/06 03:49:01;;;;;;;17.63;12.57;;;21.40;99.90;;;23.07;91.58;99345.84;5079391;27;122225;-75
2022/08/06 03:51:30;;;;;;;14.88;11.82;;;21.50;99.90;;;23.13;90.87;99350.56;5080473;27;121966;-75
2022/08/06 03:54:01;;;;;;;15.80;11.68;;;21.60;99.90;;;23.21;90.06;99340.28;5080246;27;130081;-77
2022/08/06 03:56:32;;;;;;;14.65;12.52;;;21.60;99.90;;;23.16;90.36;99349.00;5066938;27;129474;-77
2022/08/06 03:59:05;;;;;;;15.20;11.55;;;21.60;99.90;;;23.15;90.41;99350.19;5084182;27;120486;-75
2022/08/06 04:01:38;;;;;;;13.70;11.23;;;21.50;99.90;;;23.15;90.29;99350.19;5066003;27;119416;-79
2022/08/06 04:04:07;;;;;;;14.32;11.32;;;21.60;99.90;;;23.19;89.85;99353.72;5083870;27;129706;-76
2022/08/06 04:06:37;;;;;;;18.55;11.43;;;21.60;99.90;;;23.26;89.55;99364.75;5083994;27;129887;-78
2022/08/06 04:09:07;;;;;;;15.38;11.43;;;21.70;99.90;;;23.30;89.35;99360.00;5084024;27;120731;-76
2022/08/06 04:11:37;;;;;;;16.73;12.35;;;21.70;99.90;;;23.45;89.01;99355.22;5083960;27;120228;-81
2022/08/06 04:14:07;;;;;;;16.55;12.05;;;21.80;99.90;;;23.56;87.76;99355.16;5067459;27;128726;-77
2022/08/06 04:16:37;;;;;;;14.88;11.77;;;21.90;99.90;;;23.78;87.38;99361.38;5083509;27;129382;-78
2022/08/06 04:19:09;;;;;;;13.82;11.05;;;22.10;99.90;;;23.88;86.07;99367.28;5068953;27;118591;-76
2022/08/06 04:21:39;;;;;;;14.70;11.65;;;22.20;99.90;;;24.16;85.16;99369.09;5083867;27;120050;-76
2022/08/06 04:24:08;;;;;;;14.40;11.32;;;22.30;99.90;;;24.35;83.39;99381.59;5083388;27;129923;-75
2022/08/06 04:26:39;;;;;;;13.95;10.57;;;22.50;99.90;;;24.51;82.94;99369.97;5083304;27;129734;-76
2022/08/06 04:29:13;;;;;;;13.27;10.93;;;22.70;99.90;;;24.65;81.28;99371.88;5065728;27;119383;-75
2022/08/06 04:31:47;;;;;;;15.02;10.90;;;22.60;99.90;;;24.74;81.12;99370.22;5069093;27;118682;-75
2022/08/06 04:34:23;;;;;;;13.63;10.88;;;22.80;99.90;;;24.87;80.81;99383.56;5083100;27;130033;-77
2022/08/06 04:36:53;;;;;;;14.68;11.45;;;22.90;99.90;;;24.94;79.98;99384.28;5083009;27;129414;-74
2022/08/06 04:39:23;;;;;;;15.23;11.98;;;23.00;99.90;;;24.95;79.83;99390.63;5049895;27;120841;-77
2022/08/06 04:41:53;;;;;;;16.52;11.52;;;23.00;99.90;;;24.89;80.50;99376.41;5083323;27;121617;-76
2022/08/06 04:44:22;;;;;;;20.70;11.63;;;22.90;99.90;;;24.85;80.41;99380.41;5067644;27;129288;-76
2022/08/06 04:46:52;;;;;;;14.63;11.20;;;22.80;99.90;;;25.03;80.03;99381.03;5067881;27;128856;-77
2022/08/06 04:49:20;;;;;;;12.57;10.95;;;22.90;99.90;;;25.06;79.85;99374.66;5083425;27;119631;-77
2022/08/06 04:51:50;;;;;;;19.05;11.60;;;22.90;99.90;;;25.23;79.39;99377.66;5068274;27;118242;-77
2022/08/06 04:54:18;;;;;;;15.68;11.38;;;23.10;99.90;;;25.50;78.37;99380.50;5064533;27;129661;-77
2022/08/06 04:56:47;;;;;;;14.90;11.25;;;23.30;99.90;;;25.58;77.68;99381.22;5067713;27;129149;-76
2022/08/06 04:59:18;;;;;;;13.25;11.52;;;23.30;99.90;;;25.47;77.51;99378.56;5087044;27;102501;-78
2022/08/06 05:01:47;;;;;;;13.95;10.82;;;23.30;99.90;;;25.07;79.22;99387.34;5083056;27;119599;-79
2022/08/06 05:04:17;;;;;;;14.20;11.93;;;22.90;99.90;;;24.83;80.69;99380.03;5081832;27;129841;-75
2022/08/06 05:06:54;;;;;;;16.15;11.48;;;22.60;99.90;;;24.69;81.80;99384.50;5066846;27;129439;-75
2022/08/06 05:09:26;;;;;;;15.52;12.05;;;22.50;99.90;;;24.47;82.43;99377.56;5081629;27;120114;-75
2022/08/06 05:12:06;;;;;;;14.98;12.70;;;22.30;99.90;;;24.33;83.71;99378.47;5082561;27;120348;-74
2022/08/06 05:14:40;;;;;;;15.65;12.35;;;22.30;99.90;;;24.37;84.34;99379.22;5067205;27;129003;-75
2022/08/06 05:17:14;;;;;;;15.18;11.52;;;22.30;99.90;;;24.66;83.12;99379.78;5082584;27;129341;-75
2022/08/06 05:19:48;;;;;;;14.65;12.00;;;22.60;99.90;;;24.86;82.35;99382.00;5064347;27;119754;-75
2022/08/06 05:22:19;;;;;;;15.23;12.95;;;22.70;99.90;;;25.02;81.15;99379.44;5083042;27;120126;-75
2022/08/06 05:24:49;;;;;;;16.85;12.23;;;22.80;99.90;;;25.15;80.17;99376.13;5082209;27;129873;-75
2022/08/06 05:27:19;;;;;;;14.10;11.88;;;23.00;99.90;;;25.37;79.07;99373.91;5082197;27;130014;-75
2022/08/06 05:29:48;;;;;;;14.25;11.80;;;23.10;99.90;;;25.28;78.59;99369.66;5081098;27;122142;-73
2022/08/06 05:32:17;;;;;;;14.52;11.52;;;23.10;99.90;;;25.25;79.12;99372.47;5082360;27;122549;-75
2022/08/06 05:34:50;;;;;;;14.68;12.70;;;23.00;99.90;;;25.43;78.85;99378.63;5084226;27;129641;-78
2022/08/06 05:37:18;;;;;;;14.00;12.45;;;23.10;99.90;;;25.53;78.21;99370.56;5067078;27;129161;-74
2022/08/06 05:39:47;;;;;;;17.70;11.60;;;23.20;99.90;;;25.56;77.43;99380.84;5082840;27;119566;-74
2022/08/06 05:42:16;;;;;;;16.63;12.30;;;23.30;99.90;;;25.68;78.30;99363.63;5082180;27;120068;-74
2022/08/06 05:44:44;;;;;;;13.65;11.93;;;23.40;99.90;;;25.73;77.10;99360.38;5081974;27;130651;-75
2022/08/06 05:47:20;;;;;;;13.88;12.38;;;23.50;99.90;;;25.88;77.10;99360.16;5067193;27;128474;-74
2022/08/06 05:49:56;;;;;;;17.80;12.60;;;23.70;99.90;;;25.97;76.42;99363.19;5066214;27;118768;-77
2022/08/06 05:52:30;;;;;;;15.65;12.63;;;23.80;99.90;;;26.03;76.28;99367.13;5082094;27;119290;-74
2022/08/06 05:55:05;;;;;;;14.90;12.95;;;23.80;99.90;;;26.19;76.19;99358.13;5065092;27;128830;-74
2022/08/06 05:57:40;;;;;;;16.27;12.23;;;24.00;99.90;;;26.26;75.88;99363.59;5081850;27;129993;-74
2022/08/06 06:00:12;;;;;;;17.17;12.00;;;24.00;99.90;;;26.22;75.50;99359.28;5066948;27;118402;-75
2022/08/06 06:02:46;;;;;;;16.63;12.00;;;23.90;99.90;;;26.32;74.70;99356.34;5063726;27;119470;-76
2022/08/06 06:05:16;;;;;;;16.65;12.45;;;24.00;99.90;;;26.31;75.12;99362.31;5083845;27;129495;-75
2022/08/06 06:07:45;;;;;;;13.60;11.95;;;23.90;99.90;;;26.39;75.19;99360.22;5081572;27;129342;-77
2022/08/06 06:10:15;;;;;;;15.07;12.10;;;24.00;99.90;;;26.49;75.14;99362.00;5081473;27;119250;-76
2022/08/06 06:12:44;;;;;;;16.10;12.13;;;24.10;99.90;;;26.60;74.03;99359.03;5082218;27;119453;-73
2022/08/06 06:15:14;;;;;;;15.43;12.48;;;24.20;99.90;;;26.55;73.41;99358.34;5081543;27;130527;-77
2022/08/06 06:18:08;;;;;;;17.02;13.60;;;24.10;99.90;;;26.46;74.42;99355.31;5080661;27;129147;-75
2022/08/06 06:20:50;;;;;;;16.02;12.95;;;24.00;99.90;;;26.55;73.83;99352.78;5065062;27;124328;-76
2022/08/06 06:23:27;;;;;;;17.48;13.18;;;24.30;99.90;;;26.64;73.52;99351.44;5063060;27;121911;-75
2022/08/06 06:26:10;;;;;;;16.35;12.10;;;24.40;95.90;;;26.83;73.44;99350.72;5081428;27;130728;-74
2022/08/06 06:28:52;;;;;;;15.30;12.75;;;24.60;97.80;;;26.98;72.26;99353.22;5049178;27;128583;-75
2022/08/06 06:31:31;;;;;;;15.25;11.75;;;24.70;96.00;;;27.06;71.94;99346.31;5081724;27;120583;-77
2022/08/06 06:34:09;;;;;;;13.93;12.43;;;24.80;95.10;;;27.16;71.53;99350.06;5081633;27;119912;-75
2022/08/06 06:36:48;;;;;;;14.95;11.85;;;25.00;91.30;;;27.31;72.02;99350.59;5081248;27;130417;-77
2022/08/06 06:39:37;;;;;;;17.00;11.57;;;25.10;91.30;;;27.35;72.02;99351.34;5066471;27;129109;-74
2022/08/06 06:42:12;;;;;;;15.65;12.27;;;25.10;92.70;;;27.43;70.94;99342.38;5081361;27;119415;-73
2022/08/06 06:44:47;;;;;;;14.02;12.30;;;25.20;83.30;;;27.30;71.85;99349.00;5081775;27;119585;-75
2022/08/06 06:47:25;;;;;;;14.63;12.10;;;25.10;91.60;;;27.55;71.03;99349.31;5080052;27;130278;-77
2022/08/06 06:49:59;;;;;;;15.90;13.13;;;25.40;81.10;;;27.38;71.28;99351.25;5082733;27;131688;-76
2022/08/06 06:52:35;;;;;;;13.60;12.13;;;25.40;75.60;;;27.42;71.33;99345.59;5081763;27;120079;-74
2022/08/06 06:55:11;;;;;;;15.85;12.88;;;25.20;77.60;;;27.49;70.86;99347.44;5081279;27;119802;-74
2022/08/06 06:57:46;;;;;;;16.40;13.32;;;25.10;83.80;;;27.59;70.61;99350.00;5062578;27;129869;-77
2022/08/06 07:00:15;;;;;;;17.35;14.20;;;25.30;71.60;;;27.76;69.49;99347.25;5080979;27;129704;-75
2022/08/06 07:02:49;;;;;;;15.73;13.00;;;25.30;68.30;;;27.58;69.70;99342.88;5081079;27;119619;-78
2022/08/06 07:05:18;;;;;;;14.27;12.75;;;25.30;72.10;;;27.70;70.94;99335.06;5063277;27;119428;-74
2022/08/06 07:07:51;;;;;;;15.77;12.43;;;25.60;73.50;;;27.42;70.25;99340.03;5080777;27;129745;-77
2022/08/06 07:10:21;;;;;;;17.13;12.80;;;25.60;59.30;;;27.78;70.48;99333.66;5080776;27;129381;-76
2022/08/06 07:12:51;;;;;;;15.25;12.75;;;25.70;66.20;;;28.02;70.06;99336.31;5079904;27;122250;-75
2022/08/06 07:15:22;;;;;;;13.82;12.32;;;26.10;63.60;;;28.21;69.39;99346.63;5081352;27;122155;-78
2022/08/06 07:17:52;;;;;;;16.77;13.32;;;26.10;57.40;;;28.40;68.58;99344.19;5081039;27;129796;-76
2022/08/06 07:20:26;;;;;;;15.30;12.20;;;26.20;57.10;;;28.53;67.42;99336.66;5066219;27;128987;-76
2022/08/06 07:23:00;;;;;;;15.77;11.27;;;26.20;49.00;;;28.63;66.89;99332.06;5081005;27;118983;-75
2022/08/06 07:25:29;;;;;;;14.02;12.38;;;26.40;42.70;;;28.78;66.31;99327.66;5080976;27;119315;-75
2022/08/06 07:27:58;;;;;;;14.77;12.43;;;26.60;38.30;;;28.97;65.72;99342.72;5065566;27;129277;-75
2022/08/06 07:30:27;;;;;;;14.43;11.85;;;26.70;31.80;;;28.68;66.37;99343.47;5083036;27;129675;-77
2022/08/06 07:32:55;;;;;;;17.15;12.40;;;26.40;38.70;;;28.69;66.53;99338.69;5084253;27;119543;-75
2022/08/06 07:35:25;;;;;;;13.40;11.13;;;26.30;42.80;;;28.64;67.20;99331.63;5084693;27;119556;-73
2022/08/06 07:37:58;;;;;;;14.63;12.55;;;26.30;47.70;;;28.86;66.03;99331.84;5083045;27;130398;-77
2022/08/06 07:40:31;;;;;;;15.35;12.02;;;26.40;42.70;;;28.83;65.76;99326.34;5083947;27;130552;-75
2022/08/06 07:43:06;;;;;;;14.00;12.13;;;26.40;39.90;;;28.78;65.69;99343.63;5084676;27;119985;-75
2022/08/06 07:45:36;;;;;;;12.95;11.35;;;26.40;42.80;;;28.85;65.45;99335.84;5084237;27;119936;-76
2022/08/06 07:48:09;;;;;;;16.15;12.48;;;26.50;34.80;;;28.98;64.78;99333.09;5083302;27;130487;-76
2022/08/06 07:50:39;;;;;;;13.85;12.15;;;26.50;25.30;;;29.25;64.72;99340.38;5064574;27;129792;-74
2022/08/06 07:53:12;;;;;;;14.32;12.75;;;26.90;23.90;;;29.45;62.78;99342.19;5068879;27;118766;-77
2022/08/06 07:55:42;;;;;;;17.58;11.65;;;27.00;14.80;;;29.43;63.73;99333.47;5085713;27;119565;-76
2022/08/06 07:58:12;;;;;;;14.20;10.93;;;26.90;21.50;;;29.48;63.36;99324.53;5083551;27;129965;-78
2022/08/06 08:00:42;;;;;;;14.02;11.77;;;27.10;16.50;;;29.79;64.17;99332.38;5084062;27;129923;-74
2022/08/06 08:08:47;;;;;;;15.13;12.38;;;27.60;5.90;;;30.05;60.99;99335.97;5086143;27;129799;-76
2022/08/06 08:11:18;;;;;;;17.90;12.13;;;27.60;1.00;;;30.14;60.73;99332.47;5083322;27;129996;-77
2022/08/06 08:13:47;;;;;;;16.15;11.32;;;27.60;1.00;;;30.45;60.43;99339.06;5083957;27;119483;-74
2022/08/06 08:16:16;;;;;;;12.43;11.15;;;27.90;1.00;;;30.46;59.88;99329.44;5068596;27;118967;-76
2022/08/06 08:18:45;;;;;;;16.65;11.25;;;27.90;1.40;;;30.34;60.27;99321.81;5075883;27;129567;-75
2022/08/06 08:21:15;;;;;;;13.20;11.77;;;27.50;2.20;;;30.46;58.51;99318.25;5067051;27;129260;-75
2022/08/06 08:23:47;;;;;;;14.98;11.38;;;27.70;1.00;;;30.55;58.31;99325.94;5082053;27;120516;-78
2022/08/06 08:26:15;;;;;;;12.43;10.82;;;27.70;1.00;;;30.60;57.98;99321.78;5050394;27;118890;-76
2022/08/06 08:28:44;;;;;;;12.68;10.98;;;27.90;1.00;;;30.50;59.04;99317.34;5066364;27;129116;-73
2022/08/06 08:31:13;;;;;;;13.43;10.95;;;27.70;1.00;;;30.43;59.01;99321.94;5082407;27;129906;-76
2022/08/06 08:33:42;;;;;;;13.65;10.93;;;27.60;1.00;;;30.39;59.21;99324.06;5081435;27;119477;-74
2022/08/06 08:36:11;;;;;;;12.35;10.68;;;27.70;1.00;;;30.44;58.83;99322.72;5082396;27;119416;-73
2022/08/06 08:38:39;;;;;;;14.55;10.40;;;27.70;1.00;;;30.25;58.53;99316.91;5082620;27;130118;-74
2022/08/06 08:41:19;;;;;;;13.88;11.25;;;27.40;1.00;;;30.38;58.06;99316.09;5059517;27;129399;-74
2022/08/06 08:43:54;;;;;;;13.93;11.30;;;27.70;1.00;;;30.58;58.00;99311.03;5060926;27;121375;-73
2022/08/06 08:46:26;;;;;;;12.50;10.87;;;27.90;1.00;;;30.56;57.75;99301.50;5043475;27;119310;-75
2022/08/06 08:48:59;;;;;;;14.25;10.93;;;28.00;1.00;;;30.59;58.24;99309.00;5061782;27;130192;-75
2022/08/06 08:51:28;;;;;;;12.88;11.55;;;27.80;1.00;;;30.74;58.50;99310.06;5072515;27;129888;-74
2022/08/06 08:54:00;;;;;;;13.05;11.50;;;27.80;1.00;;;30.61;57.67;99312.16;5064066;27;121115;-74
2022/08/06 08:56:32;;;;;;;14.70;12.10;;;27.60;1.00;;;30.92;57.85;99311.47;5084007;27;121788;-74
2022/08/06 08:59:02;;;;;;;14.90;11.45;;;27.90;1.00;;;31.25;57.70;99308.28;5077205;27;130317;-74
2022/08/06 09:01:30;;;;;;;14.10;11.80;;;28.20;1.00;;;31.44;55.83;99315.53;5047058;27;128974;-76
2022/08/06 09:04:02;;;;;;;11.88;10.10;;;28.50;1.00;;;31.46;55.78;99307.47;5062155;27;119700;-75
2022/08/06 09:06:32;;;;;;;12.20;10.88;;;28.50;1.00;;;31.62;55.18;99314.88;5062311;27;119836;-73
2022/08/06 09:09:04;;;;;;;12.13;10.82;;;28.50;1.00;;;31.68;54.24;99306.63;5043874;27;130672;-75
2022/08/06 09:11:36;;;;;;;13.98;10.57;;;28.20;1.00;;;31.88;54.54;99309.84;5062104;27;129626;-77
2022/08/06 09:14:10;;;;;;;12.25;10.98;;;28.60;1.00;;;31.58;54.81;99302.22;5062580;27;120158;-75
2022/08/06 09:16:38;;;;;;;14.13;11.57;;;28.70;1.00;;;31.28;56.29;99298.94;5062068;27;119411;-75
2022/08/06 09:19:08;;;;;;;12.93;10.48;;;28.50;1.00;;;31.60;56.08;99294.94;5060044;27;130649;-75
2022/08/06 09:21:37;;;;;;;12.30;11.05;;;28.70;1.00;;;31.83;54.56;99301.22;5061777;27;129466;-75
2022/08/06 09:24:07;;;;;;;13.35;11.02;;;28.90;1.00;;;31.90;53.38;99300.94;5062150;27;119707;-76
2022/08/06 09:26:37;;;;;;;15.45;10.93;;;28.70;1.00;;;31.77;54.75;99298.25;5062048;27;119932;-76
2022/08/06 09:29:21;;;;;;;12.88;10.90;;;28.80;1.00;;;31.71;53.87;99292.47;5061641;27;130365;-76
2022/08/06 09:31:49;;;;;;;11.88;10.38;;;28.70;1.00;;;31.66;55.01;99293.06;5061537;27;130170;-75
2022/08/06 09:34:18;;;;;;;12.80;11.30;;;28.60;1.00;;;31.72;53.11;99285.59;5043594;27;119590;-76
2022/08/06 09:36:49;;;;;;;13.38;10.48;;;28.60;1.00;;;31.48;55.73;99288.13;5062100;27;119586;-74
2022/08/06 09:39:30;;;;;;;11.02;9.90;;;28.70;1.00;;;31.65;55.07;99285.91;5043466;27;130194;-76
2022/08/06 09:42:00;;;;;;;14.00;10.43;;;28.90;1.00;;;32.09;53.93;99284.97;5028004;27;128679;-77
2022/08/06 09:44:29;;;;;;;12.93;10.18;;;29.30;1.00;;;32.59;53.65;99282.03;5045348;27;121742;-75
2022/08/06 09:46:57;;;;;;;12.30;10.57;;;29.50;1.00;;;32.10;54.02;99286.53;5061760;27;122405;-76
2022/08/06 09:49:26;;;;;;;14.20;10.52;;;29.20;1.00;;;31.82;54.25;99280.81;5061116;27;130352;-75
2022/08/06 09:52:17;;;;;;;12.23;10.80;;;28.70;1.00;;;31.16;55.68;99278.16;5061133;27;129363;-74
2022/08/06 09:54:48;;;;;;;12.88;10.98;;;28.30;1.00;;;30.79;56.90;99270.28;5061466;27;119670;-76
2022/08/06 09:57:18;;;;;;;12.60;10.10;;;28.00;1.00;;;31.34;55.44;99280.28;5064265;27;122793;-75
2022/08/06 09:59:49;;;;;;;12.05;10.60;;;28.50;1.00;;;31.27;55.58;99277.75;5060960;27;130543;-79
2022/08/06 10:02:20;;;;;;;11.85;10.60;;;28.60;1.00;;;31.00;57.01;99276.38;5061400;27;129865;-79
2022/08/06 10:04:50;;;;;;;13.45;10.45;;;28.20;1.00;;;30.91;55.47;99290.28;5046745;27;118878;-77
2022/08/06 10:07:30;;;;;;;14.38;10.35;;;28.20;1.00;;;30.72;55.65;99287.34;5042789;27;119736;-77
2022/08/06 10:09:59;;;;;;;11.00;9.90;;;28.00;1.00;;;30.43;56.74;99277.16;5058433;27;129969;-76
2022/08/06 10:12:29;;;;;;;14.30;10.35;;;27.80;1.00;;;30.39;56.39;99270.91;5061007;27;129681;-78
2022/08/06 10:14:58;;;;;;;12.90;9.23;;;27.80;1.00;;;30.34;56.62;99274.25;5061311;27;120307;-75
2022/08/06 10:17:29;;;;;;;10.65;9.45;;;27.70;1.00;;;30.67;56.25;99271.13;5045929;27;118731;-76
2022/08/06 10:20:10;;;;;;;11.80;10.05;;;28.00;1.00;;;30.87;56.39;99272.81;5060588;27;129769;-76
2022/08/06 10:22:51;;;;;;;11.13;9.73;;;28.20;1.00;;;30.93;55.77;99276.59;5071279;27;129963;-77
2022/08/06 10:25:21;;;;;;;12.18;10.50;;;28.10;1.00;;;30.89;56.33;99281.56;5078778;27;120152;-72